sensor_id;sensor_type;location;lat;lon;timestamp;P1;durP1;ratioP1;P2;durP2;ratioP2
60700;SDS011;46541;49.894;10.886;2023-02-20T00:00:25;7.47;;;5.47;;
60700;SDS011;46541;49.894;10.886;2023-02-20T00:02:53;6.97;;;4.97;;
60700;SDS011;46541;49.894;10.886;2023-02-20T00:05:20;7.80;;;4.40;;
60700;SDS011;46541;49.894;10.886;2023-02-20T00:07:47;6.82;;;4.47;;
60700;SDS011;46541;49.894;10.886;2023-02-20T00:10:14;7.10;;;4.50;;
60700;SDS011;46541;49.894;10.886;2023-02-20T00:12:41;8.60;;;4.60;;
60700;SDS011;46541;49.894;10.886;2023-02-20T00:15:08;9.70;;;5.15;;
60700;SDS011;46541;49.894;10.886;2023-02-20T00:17:42;6.53;;;4.40;;
60700;SDS011;46541;49.894;10.886;2023-02-20T00:20:09;6.90;;;4.60;;
60700;SDS011;46541;49.894;10.886;2023-02-20T00:22:36;7.32;;;4.55;;
60700;SDS011;46541;49.894;10.886;2023-02-20T00:25:03;6.03;;;3.97;;
60700;SDS011;46541;49.894;10.886;2023-02-20T00:27:30;6.45;;;4.72;;
60700;SDS011;46541;49.894;10.886;2023-02-20T00:29:57;6.97;;;4.78;;
60700;SDS011;46541;49.894;10.886;2023-02-20T00:32:23;6.38;;;4.60;;
60700;SDS011;46541;49.894;10.886;2023-02-20T00:34:50;7.03;;;4.72;;
60700;SDS011;46541;49.894;10.886;2023-02-20T00:37:17;8.52;;;5.18;;
60700;SDS011;46541;49.894;10.886;2023-02-20T00:39:43;6.97;;;4.88;;
60700;SDS011;46541;49.894;10.886;2023-02-20T00:42:10;8.63;;;4.88;;
60700;SDS011;46541;49.894;10.886;2023-02-20T00:44:37;9.55;;;5.20;;
60700;SDS011;46541;49.894;10.886;2023-02-20T00:47:04;8.07;;;5.20;;
60700;SDS011;46541;49.894;10.886;2023-02-20T00:49:30;7.00;;;4.78;;
60700;SDS011;46541;49.894;10.886;2023-02-20T00:51:57;10.48;;;5.25;;
60700;SDS011;46541;49.894;10.886;2023-02-20T00:54:24;8.20;;;5.00;;
60700;SDS011;46541;49.894;10.886;2023-02-20T00:56:50;8.13;;;5.15;;
60700;SDS011;46541;49.894;10.886;2023-02-20T00:59:17;12.90;;;6.28;;
60700;SDS011;46541;49.894;10.886;2023-02-20T01:01:44;9.77;;;6.00;;
60700;SDS011;46541;49.894;10.886;2023-02-20T01:04:11;8.38;;;5.22;;
60700;SDS011;46541;49.894;10.886;2023-02-20T01:06:37;9.00;;;5.32;;
60700;SDS011;46541;49.894;10.886;2023-02-20T01:09:04;9.00;;;5.63;;
60700;SDS011;46541;49.894;10.886;2023-02-20T01:11:31;8.00;;;5.35;;
60700;SDS011;46541;49.894;10.886;2023-02-20T01:13:57;10.13;;;5.45;;
60700;SDS011;46541;49.894;10.886;2023-02-20T01:16:24;10.35;;;6.55;;
60700;SDS011;46541;49.894;10.886;2023-02-20T01:18:51;9.48;;;6.13;;
60700;SDS011;46541;49.894;10.886;2023-02-20T01:21:18;8.90;;;6.00;;
60700;SDS011;46541;49.894;10.886;2023-02-20T01:23:45;7.25;;;5.05;;
60700;SDS011;46541;49.894;10.886;2023-02-20T01:26:12;8.45;;;5.43;;
60700;SDS011;46541;49.894;10.886;2023-02-20T01:28:41;9.15;;;5.25;;
60700;SDS011;46541;49.894;10.886;2023-02-20T01:31:10;7.95;;;5.35;;
60700;SDS011;46541;49.894;10.886;2023-02-20T01:33:39;7.72;;;5.20;;
60700;SDS011;46541;49.894;10.886;2023-02-20T01:36:07;8.75;;;5.90;;
60700;SDS011;46541;49.894;10.886;2023-02-20T01:38:35;8.23;;;5.75;;
60700;SDS011;46541;49.894;10.886;2023-02-20T01:41:02;9.38;;;4.60;;
60700;SDS011;46541;49.894;10.886;2023-02-20T01:43:29;7.57;;;5.45;;
60700;SDS011;46541;49.894;10.886;2023-02-20T01:46:22;10.32;;;5.57;;
60700;SDS011;46541;49.894;10.886;2023-02-20T01:51:23;7.97;;;5.30;;
60700;SDS011;46541;49.894;10.886;2023-02-20T01:53:51;7.88;;;5.63;;
60700;SDS011;46541;49.894;10.886;2023-02-20T01:56:18;9.52;;;6.22;;
60700;SDS011;46541;49.894;10.886;2023-02-20T01:58:45;9.07;;;5.93;;
60700;SDS011;46541;49.894;10.886;2023-02-20T02:01:14;8.68;;;5.88;;
60700;SDS011;46541;49.894;10.886;2023-02-20T02:03:42;8.63;;;5.82;;
60700;SDS011;46541;49.894;10.886;2023-02-20T02:06:13;10.57;;;5.78;;
60700;SDS011;46541;49.894;10.886;2023-02-20T02:08:42;9.15;;;5.85;;
60700;SDS011;46541;49.894;10.886;2023-02-20T02:11:11;11.02;;;6.38;;
60700;SDS011;46541;49.894;10.886;2023-02-20T02:13:41;9.07;;;5.82;;
60700;SDS011;46541;49.894;10.886;2023-02-20T02:22:03;8.52;;;6.03;;
60700;SDS011;46541;49.894;10.886;2023-02-20T02:30:49;8.00;;;5.80;;
60700;SDS011;46541;49.894;10.886;2023-02-20T02:36:28;7.82;;;5.65;;
60700;SDS011;46541;49.894;10.886;2023-02-20T02:39:10;11.93;;;5.70;;
60700;SDS011;46541;49.894;10.886;2023-02-20T02:44:24;12.02;;;7.00;;
60700;SDS011;46541;49.894;10.886;2023-02-20T02:47:12;12.63;;;6.97;;
60700;SDS011;46541;49.894;10.886;2023-02-20T02:49:44;9.07;;;5.50;;
60700;SDS011;46541;49.894;10.886;2023-02-20T02:52:24;11.93;;;7.25;;
60700;SDS011;46541;49.894;10.886;2023-02-20T02:55:11;12.10;;;6.30;;
60700;SDS011;46541;49.894;10.886;2023-02-20T02:57:40;9.50;;;6.20;;
60700;SDS011;46541;49.894;10.886;2023-02-20T03:00:09;8.30;;;5.97;;
60700;SDS011;46541;49.894;10.886;2023-02-20T03:02:46;14.05;;;6.60;;
60700;SDS011;46541;49.894;10.886;2023-02-20T03:05:23;10.68;;;6.68;;
60700;SDS011;46541;49.894;10.886;2023-02-20T03:08:06;10.43;;;6.97;;
60700;SDS011;46541;49.894;10.886;2023-02-20T03:10:39;9.95;;;6.32;;
60700;SDS011;46541;49.894;10.886;2023-02-20T03:13:09;11.32;;;6.70;;
60700;SDS011;46541;49.894;10.886;2023-02-20T03:15:38;10.30;;;6.13;;
60700;SDS011;46541;49.894;10.886;2023-02-20T03:18:53;10.38;;;6.38;;
60700;SDS011;46541;49.894;10.886;2023-02-20T03:21:06;12.02;;;7.15;;
60700;SDS011;46541;49.894;10.886;2023-02-20T03:23:45;13.98;;;7.22;;
60700;SDS011;46541;49.894;10.886;2023-02-20T03:26:19;19.42;;;7.65;;
60700;SDS011;46541;49.894;10.886;2023-02-20T03:28:53;13.90;;;7.43;;
60700;SDS011;46541;49.894;10.886;2023-02-20T03:31:29;12.07;;;7.07;;
60700;SDS011;46541;49.894;10.886;2023-02-20T03:34:17;13.45;;;7.30;;
60700;SDS011;46541;49.894;10.886;2023-02-20T03:37:08;12.52;;;7.32;;
60700;SDS011;46541;49.894;10.886;2023-02-20T03:40:00;12.23;;;6.93;;
60700;SDS011;46541;49.894;10.886;2023-02-20T03:42:50;10.85;;;7.45;;
60700;SDS011;46541;49.894;10.886;2023-02-20T03:45:40;10.32;;;6.20;;
60700;SDS011;46541;49.894;10.886;2023-02-20T03:48:15;12.23;;;6.95;;
60700;SDS011;46541;49.894;10.886;2023-02-20T03:50:59;13.00;;;6.63;;
60700;SDS011;46541;49.894;10.886;2023-02-20T03:53:38;14.55;;;6.13;;
60700;SDS011;46541;49.894;10.886;2023-02-20T03:56:54;11.35;;;6.93;;
60700;SDS011;46541;49.894;10.886;2023-02-20T03:58:59;8.52;;;5.93;;
60700;SDS011;46541;49.894;10.886;2023-02-20T04:01:30;12.55;;;7.22;;
60700;SDS011;46541;49.894;10.886;2023-02-20T04:03:59;12.77;;;7.10;;
60700;SDS011;46541;49.894;10.886;2023-02-20T04:06:27;16.25;;;6.78;;
60700;SDS011;46541;49.894;10.886;2023-02-20T04:11:28;11.93;;;6.65;;
60700;SDS011;46541;49.894;10.886;2023-02-20T04:13:59;11.73;;;6.57;;
60700;SDS011;46541;49.894;10.886;2023-02-20T04:16:28;11.80;;;6.45;;
60700;SDS011;46541;49.894;10.886;2023-02-20T04:18:59;12.63;;;7.25;;
60700;SDS011;46541;49.894;10.886;2023-02-20T04:21:42;12.13;;;6.57;;
60700;SDS011;46541;49.894;10.886;2023-02-20T04:26:56;12.35;;;6.50;;
60700;SDS011;46541;49.894;10.886;2023-02-20T04:29:23;12.35;;;6.85;;
60700;SDS011;46541;49.894;10.886;2023-02-20T04:31:50;12.23;;;6.65;;
60700;SDS011;46541;49.894;10.886;2023-02-20T04:34:17;13.45;;;6.93;;
60700;SDS011;46541;49.894;10.886;2023-02-20T04:36:44;10.00;;;6.93;;
60700;SDS011;46541;49.894;10.886;2023-02-20T04:39:11;17.55;;;6.85;;
60700;SDS011;46541;49.894;10.886;2023-02-20T04:41:38;11.20;;;6.70;;
60700;SDS011;46541;49.894;10.886;2023-02-20T04:44:04;8.70;;;6.07;;
60700;SDS011;46541;49.894;10.886;2023-02-20T04:46:49;14.05;;;6.35;;
60700;SDS011;46541;49.894;10.886;2023-02-20T04:49:16;11.10;;;6.55;;
60700;SDS011;46541;49.894;10.886;2023-02-20T04:51:43;12.60;;;6.95;;
60700;SDS011;46541;49.894;10.886;2023-02-20T04:54:09;14.98;;;6.78;;
60700;SDS011;46541;49.894;10.886;2023-02-20T04:56:36;11.40;;;6.28;;
60700;SDS011;46541;49.894;10.886;2023-02-20T04:59:03;8.65;;;5.57;;
60700;SDS011;46541;49.894;10.886;2023-02-20T05:01:30;12.15;;;6.38;;
60700;SDS011;46541;49.894;10.886;2023-02-20T05:03:57;8.90;;;6.28;;
60700;SDS011;46541;49.894;10.886;2023-02-20T05:06:24;15.40;;;7.15;;
60700;SDS011;46541;49.894;10.886;2023-02-20T05:08:50;12.18;;;6.20;;
60700;SDS011;46541;49.894;10.886;2023-02-20T05:11:17;12.18;;;6.20;;
60700;SDS011;46541;49.894;10.886;2023-02-20T05:13:44;11.15;;;6.45;;
60700;SDS011;46541;49.894;10.886;2023-02-20T05:16:11;13.48;;;6.35;;
60700;SDS011;46541;49.894;10.886;2023-02-20T05:18:39;12.77;;;6.10;;
60700;SDS011;46541;49.894;10.886;2023-02-20T05:21:06;8.63;;;5.82;;
60700;SDS011;46541;49.894;10.886;2023-02-20T05:23:51;11.88;;;6.10;;
60700;SDS011;46541;49.894;10.886;2023-02-20T05:26:19;12.55;;;6.82;;
60700;SDS011;46541;49.894;10.886;2023-02-20T05:28:46;12.55;;;5.72;;
60700;SDS011;46541;49.894;10.886;2023-02-20T05:31:13;14.82;;;6.80;;
60700;SDS011;46541;49.894;10.886;2023-02-20T05:33:42;11.88;;;5.95;;
60700;SDS011;46541;49.894;10.886;2023-02-20T05:36:09;13.07;;;6.60;;
60700;SDS011;46541;49.894;10.886;2023-02-20T05:38:36;9.05;;;5.82;;
60700;SDS011;46541;49.894;10.886;2023-02-20T05:41:03;15.77;;;6.32;;
60700;SDS011;46541;49.894;10.886;2023-02-20T05:43:30;15.02;;;6.18;;
60700;SDS011;46541;49.894;10.886;2023-02-20T05:45:57;10.80;;;6.45;;
60700;SDS011;46541;49.894;10.886;2023-02-20T05:48:24;16.20;;;7.80;;
60700;SDS011;46541;49.894;10.886;2023-02-20T05:50:51;48.05;;;17.52;;
60700;SDS011;46541;49.894;10.886;2023-02-20T05:53:19;27.27;;;10.52;;
60700;SDS011;46541;49.894;10.886;2023-02-20T05:55:45;11.32;;;6.07;;
60700;SDS011;46541;49.894;10.886;2023-02-20T05:58:12;12.68;;;6.82;;
60700;SDS011;46541;49.894;10.886;2023-02-20T06:00:39;10.00;;;6.78;;
60700;SDS011;46541;49.894;10.886;2023-02-20T06:03:06;11.88;;;6.40;;
60700;SDS011;46541;49.894;10.886;2023-02-20T06:05:33;14.32;;;6.65;;
60700;SDS011;46541;49.894;10.886;2023-02-20T06:08:00;13.30;;;7.55;;
60700;SDS011;46541;49.894;10.886;2023-02-20T06:10:27;12.90;;;7.28;;
60700;SDS011;46541;49.894;10.886;2023-02-20T06:12:54;12.27;;;6.35;;
60700;SDS011;46541;49.894;10.886;2023-02-20T06:15:20;12.85;;;6.82;;
60700;SDS011;46541;49.894;10.886;2023-02-20T06:17:47;7.45;;;5.70;;
60700;SDS011;46541;49.894;10.886;2023-02-20T06:20:14;16.27;;;7.15;;
60700;SDS011;46541;49.894;10.886;2023-02-20T06:22:41;14.00;;;7.20;;
60700;SDS011;46541;49.894;10.886;2023-02-20T06:25:08;12.05;;;6.07;;
60700;SDS011;46541;49.894;10.886;2023-02-20T06:27:37;13.15;;;6.80;;
60700;SDS011;46541;49.894;10.886;2023-02-20T06:30:04;10.15;;;6.47;;
60700;SDS011;46541;49.894;10.886;2023-02-20T06:32:31;14.40;;;6.55;;
60700;SDS011;46541;49.894;10.886;2023-02-20T06:34:58;12.23;;;6.50;;
60700;SDS011;46541;49.894;10.886;2023-02-20T06:37:25;13.80;;;7.32;;
60700;SDS011;46541;49.894;10.886;2023-02-20T06:39:51;16.13;;;7.88;;
60700;SDS011;46541;49.894;10.886;2023-02-20T06:42:18;14.90;;;7.88;;
60700;SDS011;46541;49.894;10.886;2023-02-20T06:44:45;18.02;;;10.30;;
60700;SDS011;46541;49.894;10.886;2023-02-20T06:47:11;11.75;;;6.50;;
60700;SDS011;46541;49.894;10.886;2023-02-20T06:49:38;13.20;;;6.30;;
60700;SDS011;46541;49.894;10.886;2023-02-20T06:52:06;13.45;;;7.00;;
60700;SDS011;46541;49.894;10.886;2023-02-20T06:54:34;12.18;;;6.82;;
60700;SDS011;46541;49.894;10.886;2023-02-20T06:57:01;14.85;;;6.35;;
60700;SDS011;46541;49.894;10.886;2023-02-20T06:59:28;12.85;;;6.65;;
60700;SDS011;46541;49.894;10.886;2023-02-20T07:01:54;11.82;;;6.35;;
60700;SDS011;46541;49.894;10.886;2023-02-20T07:04:22;11.65;;;5.68;;
60700;SDS011;46541;49.894;10.886;2023-02-20T07:06:53;10.23;;;5.75;;
60700;SDS011;46541;49.894;10.886;2023-02-20T07:09:19;12.02;;;6.38;;
60700;SDS011;46541;49.894;10.886;2023-02-20T07:11:46;15.20;;;7.20;;
60700;SDS011;46541;49.894;10.886;2023-02-20T07:14:16;16.05;;;6.55;;
60700;SDS011;46541;49.894;10.886;2023-02-20T07:16:43;12.55;;;6.65;;
60700;SDS011;46541;49.894;10.886;2023-02-20T07:19:09;12.40;;;7.00;;
60700;SDS011;46541;49.894;10.886;2023-02-20T07:21:36;9.77;;;5.85;;
60700;SDS011;46541;49.894;10.886;2023-02-20T07:24:04;11.68;;;5.70;;
60700;SDS011;46541;49.894;10.886;2023-02-20T07:26:31;12.80;;;6.07;;
60700;SDS011;46541;49.894;10.886;2023-02-20T07:28:58;11.73;;;5.90;;
60700;SDS011;46541;49.894;10.886;2023-02-20T07:31:26;13.38;;;5.78;;
60700;SDS011;46541;49.894;10.886;2023-02-20T07:33:53;10.80;;;6.15;;
60700;SDS011;46541;49.894;10.886;2023-02-20T07:36:20;14.52;;;6.32;;
60700;SDS011;46541;49.894;10.886;2023-02-20T07:38:56;10.15;;;5.88;;
60700;SDS011;46541;49.894;10.886;2023-02-20T07:41:25;13.70;;;6.55;;
60700;SDS011;46541;49.894;10.886;2023-02-20T07:43:55;11.65;;;6.03;;
60700;SDS011;46541;49.894;10.886;2023-02-20T07:46:22;13.02;;;6.20;;
60700;SDS011;46541;49.894;10.886;2023-02-20T07:48:49;11.32;;;6.25;;
60700;SDS011;46541;49.894;10.886;2023-02-20T07:51:15;14.63;;;6.38;;
60700;SDS011;46541;49.894;10.886;2023-02-20T07:53:49;15.02;;;7.78;;
60700;SDS011;46541;49.894;10.886;2023-02-20T07:56:17;13.00;;;6.53;;
60700;SDS011;46541;49.894;10.886;2023-02-20T07:58:45;10.55;;;6.22;;
60700;SDS011;46541;49.894;10.886;2023-02-20T08:01:12;12.93;;;7.35;;
60700;SDS011;46541;49.894;10.886;2023-02-20T08:03:39;14.05;;;6.13;;
60700;SDS011;46541;49.894;10.886;2023-02-20T08:06:06;12.27;;;7.35;;
60700;SDS011;46541;49.894;10.886;2023-02-20T08:08:33;16.27;;;7.80;;
60700;SDS011;46541;49.894;10.886;2023-02-20T08:11:00;14.00;;;6.28;;
60700;SDS011;46541;49.894;10.886;2023-02-20T08:13:34;11.77;;;6.03;;
60700;SDS011;46541;49.894;10.886;2023-02-20T08:16:01;12.25;;;6.47;;
60700;SDS011;46541;49.894;10.886;2023-02-20T08:18:28;13.50;;;6.65;;
60700;SDS011;46541;49.894;10.886;2023-02-20T08:20:55;12.35;;;6.45;;
60700;SDS011;46541;49.894;10.886;2023-02-20T08:23:22;10.02;;;6.13;;
60700;SDS011;46541;49.894;10.886;2023-02-20T08:25:49;12.00;;;6.10;;
60700;SDS011;46541;49.894;10.886;2023-02-20T08:28:17;11.52;;;6.38;;
60700;SDS011;46541;49.894;10.886;2023-02-20T08:30:44;9.80;;;6.20;;
60700;SDS011;46541;49.894;10.886;2023-02-20T08:33:11;11.20;;;6.45;;
60700;SDS011;46541;49.894;10.886;2023-02-20T08:35:39;13.50;;;6.07;;
60700;SDS011;46541;49.894;10.886;2023-02-20T08:38:06;11.55;;;5.50;;
60700;SDS011;46541;49.894;10.886;2023-02-20T08:40:47;13.65;;;6.40;;
60700;SDS011;46541;49.894;10.886;2023-02-20T08:43:14;9.82;;;5.47;;
60700;SDS011;46541;49.894;10.886;2023-02-20T08:45:40;12.95;;;5.82;;
60700;SDS011;46541;49.894;10.886;2023-02-20T08:48:07;7.30;;;5.43;;
60700;SDS011;46541;49.894;10.886;2023-02-20T08:50:35;13.50;;;5.18;;
60700;SDS011;46541;49.894;10.886;2023-02-20T08:53:02;9.43;;;5.22;;
60700;SDS011;46541;49.894;10.886;2023-02-20T08:55:28;14.77;;;5.40;;
60700;SDS011;46541;49.894;10.886;2023-02-20T08:57:55;9.20;;;5.38;;
60700;SDS011;46541;49.894;10.886;2023-02-20T09:00:22;11.45;;;4.80;;
60700;SDS011;46541;49.894;10.886;2023-02-20T09:02:49;11.13;;;5.45;;
60700;SDS011;46541;49.894;10.886;2023-02-20T09:05:16;11.23;;;5.53;;
60700;SDS011;46541;49.894;10.886;2023-02-20T09:07:43;8.63;;;5.10;;
60700;SDS011;46541;49.894;10.886;2023-02-20T09:10:10;11.95;;;5.00;;
60700;SDS011;46541;49.894;10.886;2023-02-20T09:12:37;16.55;;;6.40;;
60700;SDS011;46541;49.894;10.886;2023-02-20T09:15:08;12.40;;;5.07;;
60700;SDS011;46541;49.894;10.886;2023-02-20T09:17:35;9.40;;;4.22;;
60700;SDS011;46541;49.894;10.886;2023-02-20T09:20:02;13.18;;;6.53;;
60700;SDS011;46541;49.894;10.886;2023-02-20T09:22:30;7.65;;;4.50;;
60700;SDS011;46541;49.894;10.886;2023-02-20T09:24:57;7.07;;;3.85;;
60700;SDS011;46541;49.894;10.886;2023-02-20T09:27:24;6.85;;;3.83;;
60700;SDS011;46541;49.894;10.886;2023-02-20T09:29:50;7.40;;;3.80;;
60700;SDS011;46541;49.894;10.886;2023-02-20T09:32:17;7.22;;;3.38;;
60700;SDS011;46541;49.894;10.886;2023-02-20T09:34:44;7.95;;;3.55;;
60700;SDS011;46541;49.894;10.886;2023-02-20T09:37:11;7.63;;;3.05;;
60700;SDS011;46541;49.894;10.886;2023-02-20T09:39:37;8.23;;;3.15;;
60700;SDS011;46541;49.894;10.886;2023-02-20T09:52:58;4.97;;;2.60;;
60700;SDS011;46541;49.894;10.886;2023-02-20T09:55:35;5.97;;;2.30;;
60700;SDS011;46541;49.894;10.886;2023-02-20T09:58:05;8.50;;;2.28;;
60700;SDS011;46541;49.894;10.886;2023-02-20T10:00:42;5.15;;;2.08;;
60700;SDS011;46541;49.894;10.886;2023-02-20T10:03:15;8.35;;;2.42;;
60700;SDS011;46541;49.894;10.886;2023-02-20T10:06:00;5.03;;;2.20;;
60700;SDS011;46541;49.894;10.886;2023-02-20T10:08:29;4.45;;;2.00;;
60700;SDS011;46541;49.894;10.886;2023-02-20T10:10:56;11.80;;;3.50;;
60700;SDS011;46541;49.894;10.886;2023-02-20T10:16:11;6.63;;;2.35;;
60700;SDS011;46541;49.894;10.886;2023-02-20T10:27:14;9.02;;;3.28;;
60700;SDS011;46541;49.894;10.886;2023-02-20T10:29:55;8.45;;;3.08;;
60700;SDS011;46541;49.894;10.886;2023-02-20T10:32:29;7.03;;;2.78;;
60700;SDS011;46541;49.894;10.886;2023-02-20T10:35:03;6.18;;;2.45;;
60700;SDS011;46541;49.894;10.886;2023-02-20T10:37:37;8.77;;;3.22;;
60700;SDS011;46541;49.894;10.886;2023-02-20T10:40:15;5.30;;;2.30;;
60700;SDS011;46541;49.894;10.886;2023-02-20T10:48:11;5.88;;;2.78;;
60700;SDS011;46541;49.894;10.886;2023-02-20T10:53:25;7.80;;;3.22;;
60700;SDS011;46541;49.894;10.886;2023-02-20T10:58:56;8.88;;;3.30;;
60700;SDS011;46541;49.894;10.886;2023-02-20T11:01:43;4.82;;;2.47;;
60700;SDS011;46541;49.894;10.886;2023-02-20T11:04:16;6.75;;;3.00;;
60700;SDS011;46541;49.894;10.886;2023-02-20T11:06:58;5.88;;;2.60;;
60700;SDS011;46541;49.894;10.886;2023-02-20T11:09:27;7.20;;;3.05;;
60700;SDS011;46541;49.894;10.886;2023-02-20T11:11:54;7.10;;;2.72;;
60700;SDS011;46541;49.894;10.886;2023-02-20T11:14:43;10.77;;;2.70;;
60700;SDS011;46541;49.894;10.886;2023-02-20T11:17:18;12.05;;;4.63;;
60700;SDS011;46541;49.894;10.886;2023-02-20T11:19:49;6.70;;;2.92;;
60700;SDS011;46541;49.894;10.886;2023-02-20T11:22:16;7.50;;;2.42;;
60700;SDS011;46541;49.894;10.886;2023-02-20T11:24:44;8.98;;;2.85;;
60700;SDS011;46541;49.894;10.886;2023-02-20T11:27:15;7.30;;;2.33;;
60700;SDS011;46541;49.894;10.886;2023-02-20T11:29:58;9.35;;;3.88;;
60700;SDS011;46541;49.894;10.886;2023-02-20T11:32:34;6.80;;;3.38;;
60700;SDS011;46541;49.894;10.886;2023-02-20T11:40:27;8.60;;;3.25;;
60700;SDS011;46541;49.894;10.886;2023-02-20T11:43:08;5.32;;;3.10;;
60700;SDS011;46541;49.894;10.886;2023-02-20T11:45:38;7.97;;;3.92;;
60700;SDS011;46541;49.894;10.886;2023-02-20T11:50:51;9.50;;;3.35;;
60700;SDS011;46541;49.894;10.886;2023-02-20T11:55:47;6.15;;;2.88;;
60700;SDS011;46541;49.894;10.886;2023-02-20T11:58:26;5.10;;;3.35;;
60700;SDS011;46541;49.894;10.886;2023-02-20T12:00:53;8.40;;;3.28;;
60700;SDS011;46541;49.894;10.886;2023-02-20T12:03:29;5.32;;;2.78;;
60700;SDS011;46541;49.894;10.886;2023-02-20T12:06:00;6.78;;;3.15;;
60700;SDS011;46541;49.894;10.886;2023-02-20T12:08:55;6.68;;;3.38;;
60700;SDS011;46541;49.894;10.886;2023-02-20T12:11:26;5.55;;;3.15;;
60700;SDS011;46541;49.894;10.886;2023-02-20T12:13:55;9.02;;;3.67;;
60700;SDS011;46541;49.894;10.886;2023-02-20T12:16:36;9.70;;;3.28;;
60700;SDS011;46541;49.894;10.886;2023-02-20T12:22:03;6.70;;;3.22;;
60700;SDS011;46541;49.894;10.886;2023-02-20T12:35:32;6.03;;;2.83;;
60700;SDS011;46541;49.894;10.886;2023-02-20T12:40:57;7.53;;;3.90;;
60700;SDS011;46541;49.894;10.886;2023-02-20T12:43:57;7.45;;;3.97;;
60700;SDS011;46541;49.894;10.886;2023-02-20T12:46:57;5.90;;;3.67;;
60700;SDS011;46541;49.894;10.886;2023-02-20T12:58:18;11.68;;;3.20;;
60700;SDS011;46541;49.894;10.886;2023-02-20T13:00:50;8.25;;;2.92;;
60700;SDS011;46541;49.894;10.886;2023-02-20T13:03:22;8.25;;;3.15;;
60700;SDS011;46541;49.894;10.886;2023-02-20T13:06:02;6.70;;;2.92;;
60700;SDS011;46541;49.894;10.886;2023-02-20T13:08:34;5.70;;;2.63;;
60700;SDS011;46541;49.894;10.886;2023-02-20T13:11:10;7.32;;;3.80;;
60700;SDS011;46541;49.894;10.886;2023-02-20T13:16:39;8.85;;;3.05;;
60700;SDS011;46541;49.894;10.886;2023-02-20T13:19:20;8.85;;;2.78;;
60700;SDS011;46541;49.894;10.886;2023-02-20T13:21:52;7.30;;;2.95;;
60700;SDS011;46541;49.894;10.886;2023-02-20T13:26:51;5.10;;;2.40;;
60700;SDS011;46541;49.894;10.886;2023-02-20T13:29:32;8.10;;;2.22;;
60700;SDS011;46541;49.894;10.886;2023-02-20T13:32:30;8.48;;;2.33;;
60700;SDS011;46541;49.894;10.886;2023-02-20T13:38:17;6.85;;;2.83;;
60700;SDS011;46541;49.894;10.886;2023-02-20T13:53:42;6.50;;;2.60;;
60700;SDS011;46541;49.894;10.886;2023-02-20T13:56:23;9.60;;;3.10;;
60700;SDS011;46541;49.894;10.886;2023-02-20T13:58:56;5.97;;;2.35;;
60700;SDS011;46541;49.894;10.886;2023-02-20T14:01:24;7.32;;;2.47;;
60700;SDS011;46541;49.894;10.886;2023-02-20T14:04:01;7.28;;;2.55;;
60700;SDS011;46541;49.894;10.886;2023-02-20T14:06:29;4.13;;;2.55;;
60700;SDS011;46541;49.894;10.886;2023-02-20T14:09:09;7.30;;;2.90;;
60700;SDS011;46541;49.894;10.886;2023-02-20T14:11:41;5.07;;;1.83;;
60700;SDS011;46541;49.894;10.886;2023-02-20T14:14:09;8.93;;;2.47;;
60700;SDS011;46541;49.894;10.886;2023-02-20T14:16:49;8.23;;;2.58;;
60700;SDS011;46541;49.894;10.886;2023-02-20T14:19:26;6.07;;;2.65;;
60700;SDS011;46541;49.894;10.886;2023-02-20T14:21:55;7.93;;;3.60;;
60700;SDS011;46541;49.894;10.886;2023-02-20T14:24:26;5.95;;;1.83;;
60700;SDS011;46541;49.894;10.886;2023-02-20T14:26:55;6.22;;;2.38;;
60700;SDS011;46541;49.894;10.886;2023-02-20T14:29:26;6.28;;;2.08;;
60700;SDS011;46541;49.894;10.886;2023-02-20T14:31:55;5.18;;;2.17;;
60700;SDS011;46541;49.894;10.886;2023-02-20T14:40:14;6.47;;;2.15;;
60700;SDS011;46541;49.894;10.886;2023-02-20T14:43:03;5.40;;;2.00;;
60700;SDS011;46541;49.894;10.886;2023-02-20T14:45:41;9.10;;;2.63;;
60700;SDS011;46541;49.894;10.886;2023-02-20T14:48:21;5.68;;;2.20;;
60700;SDS011;46541;49.894;10.886;2023-02-20T14:53:43;12.48;;;2.80;;
60700;SDS011;46541;49.894;10.886;2023-02-20T14:56:21;7.03;;;1.90;;
60700;SDS011;46541;49.894;10.886;2023-02-20T14:58:48;6.47;;;1.80;;
60700;SDS011;46541;49.894;10.886;2023-02-20T15:04:00;4.70;;;2.13;;
60700;SDS011;46541;49.894;10.886;2023-02-20T15:06:34;9.05;;;2.13;;
60700;SDS011;46541;49.894;10.886;2023-02-20T15:09:02;8.38;;;2.60;;
60700;SDS011;46541;49.894;10.886;2023-02-20T15:11:50;6.30;;;2.30;;
60700;SDS011;46541;49.894;10.886;2023-02-20T15:14:26;8.45;;;2.70;;
60700;SDS011;46541;49.894;10.886;2023-02-20T15:17:07;5.65;;;2.17;;
60700;SDS011;46541;49.894;10.886;2023-02-20T15:19:44;5.82;;;2.30;;
60700;SDS011;46541;49.894;10.886;2023-02-20T15:33:26;8.00;;;3.05;;
60700;SDS011;46541;49.894;10.886;2023-02-20T15:35:53;10.25;;;2.25;;
60700;SDS011;46541;49.894;10.886;2023-02-20T15:38:21;10.10;;;2.47;;
60700;SDS011;46541;49.894;10.886;2023-02-20T15:40:54;6.13;;;2.00;;
60700;SDS011;46541;49.894;10.886;2023-02-20T15:43:25;10.27;;;2.30;;
60700;SDS011;46541;49.894;10.886;2023-02-20T15:46:12;8.00;;;2.67;;
60700;SDS011;46541;49.894;10.886;2023-02-20T15:48:40;10.90;;;2.83;;
60700;SDS011;46541;49.894;10.886;2023-02-20T15:51:07;10.13;;;4.00;;
60700;SDS011;46541;49.894;10.886;2023-02-20T15:53:36;8.68;;;3.38;;
60700;SDS011;46541;49.894;10.886;2023-02-20T15:56:03;7.35;;;2.80;;
60700;SDS011;46541;49.894;10.886;2023-02-20T15:58:32;7.32;;;2.90;;
60700;SDS011;46541;49.894;10.886;2023-02-20T16:01:01;6.10;;;3.28;;
60700;SDS011;46541;49.894;10.886;2023-02-20T16:03:29;5.15;;;2.38;;
60700;SDS011;46541;49.894;10.886;2023-02-20T16:06:03;4.35;;;2.65;;
60700;SDS011;46541;49.894;10.886;2023-02-20T16:08:32;6.47;;;2.92;;
60700;SDS011;46541;49.894;10.886;2023-02-20T16:10:59;5.97;;;2.00;;
60700;SDS011;46541;49.894;10.886;2023-02-20T16:13:34;8.60;;;2.88;;
60700;SDS011;46541;49.894;10.886;2023-02-20T16:16:21;9.98;;;2.40;;
60700;SDS011;46541;49.894;10.886;2023-02-20T16:19:03;4.13;;;1.90;;
60700;SDS011;46541;49.894;10.886;2023-02-20T16:21:38;3.30;;;2.10;;
60700;SDS011;46541;49.894;10.886;2023-02-20T16:24:12;7.20;;;2.03;;
60700;SDS011;46541;49.894;10.886;2023-02-20T16:26:41;6.80;;;2.08;;
60700;SDS011;46541;49.894;10.886;2023-02-20T16:29:21;6.90;;;3.00;;
60700;SDS011;46541;49.894;10.886;2023-02-20T16:34:27;6.60;;;2.83;;
60700;SDS011;46541;49.894;10.886;2023-02-20T16:36:58;8.40;;;2.80;;
60700;SDS011;46541;49.894;10.886;2023-02-20T16:39:25;5.63;;;2.78;;
60700;SDS011;46541;49.894;10.886;2023-02-20T16:41:56;6.03;;;2.92;;
60700;SDS011;46541;49.894;10.886;2023-02-20T16:44:36;6.65;;;2.75;;
60700;SDS011;46541;49.894;10.886;2023-02-20T16:47:15;7.68;;;3.00;;
60700;SDS011;46541;49.894;10.886;2023-02-20T16:49:44;7.72;;;3.10;;
60700;SDS011;46541;49.894;10.886;2023-02-20T16:54:43;7.18;;;2.53;;
60700;SDS011;46541;49.894;10.886;2023-02-20T16:57:11;5.57;;;2.38;;
60700;SDS011;46541;49.894;10.886;2023-02-20T16:59:38;7.50;;;3.20;;
60700;SDS011;46541;49.894;10.886;2023-02-20T17:02:04;6.10;;;2.47;;
60700;SDS011;46541;49.894;10.886;2023-02-20T17:04:31;11.93;;;4.38;;
60700;SDS011;46541;49.894;10.886;2023-02-20T17:06:58;8.82;;;3.58;;
60700;SDS011;46541;49.894;10.886;2023-02-20T17:09:25;5.57;;;3.40;;
60700;SDS011;46541;49.894;10.886;2023-02-20T17:12:07;9.90;;;2.55;;
60700;SDS011;46541;49.894;10.886;2023-02-20T17:14:34;9.43;;;2.85;;